Etusivu
METAR-TAF:

METAR-TAF

Lentoasemat :

Ponta Delgada, Azorit, Portugali

Leveyspiiri: 37-44N, Pituuspiiri: 025-42W, korkeus merenpinnasta: 71 m

Tämänhetkinen sää

Tämä raportti tehtiin 40 minuuttia sitten, kello 08.00 UTC
Tuuli 5 kn lounaasta, vaihdellen etelän/lounaan ja pohjoisen/luoteen välillä
Lämpötila 22°C
Kosteus 88%
Ilmanpaine 1021 hPa
Näkyvyys 10 km tai enemmän
Muutamia pilviä 1600 ft:n korkeudessa

METAR: LPPD 200800Z 22005KT 200V340 9999 FEW016 22/20 Q1021

Aika: 08:40 (08:40 UTC)

Sääennuste

Tämä raportti tehtiin 3 tuntia ja 40 minuuttia sitten, kello 05.00 UTC
Ennuste voimassa 20. päivästä klo 06 UTC - 21. päivään klo 06 UTC
Tuuli 5 kn eri suunnista
Näkyvyys 10 km tai enemmän
Muutamia pilviä 1500 ft:n korkeudessa
Tulossa
20. päivästä klo 10 UTC - 20. päivään klo 12 UTC
Tuuli 8 kn lounaasta
Hajanaisia pilviä 2000 ft:n korkeudessa

TAF: LPPD 200500Z 2006/2106 VRB05KT 9999 FEW015 BECMG 2010/2012 23008KT SCT020

Säähavainnot ja -ennusteet yli 4000 lentoasemalta (METAR- ja TAF-raportit).

Käytössä olevat sääasemat on merkitty karttaan keltaisilla ja punaisilla pisteillä.

Aseta hiiri pisteen päälle nähdäksesi sääaseman nimen.

Klikkaa sitten nähdäksesi säähavainnot ja -ennusteet.

Kartan vaihtaminen: klikkaa mustalla rastilla varustettuja vihreitä pisteitä, niin voit zoomata sisään; viivalla varustettua vihreää pistettä, niin voit zoomata ulos tai vihreitä nuolia, niin pääset viereisille kartoille.


METAR-TAF: